Latest Coastal Weather Observations for Creal Reef

IDQ60701

Issued at 4:12 am EST Saturday 20 December 2014 (issued every 10 minutes, with the page automatically refreshed every 10 minutes)

About coastal observations | Map of coastal stations | Coastal observations for QLD | Marine services | Other Formats
Station Details ID: 200736 Name: CREAL REEF Lat: -20.53 Lon: 150.38 Height: 1.7 m
Data from the previous 72 hours. | See also: Recent months for locations in Queensland
Date/Time
EST
Temp

°C
Wind Pressure Rain
since 9am
mm
Weather Cloud Vis
km
Sea
Height
m
Swell
Dir
 
Speed
knots
Gust
knots
hPa Trend Height
m
Period
s
Dir
20/04:00am 26.4 E 4 5 1010.3 - - - - - - - - -
20/03:30am 26.3 E 4 5 1010.5 - - - - - - - - -
20/03:20am 26.4 E 4 - 1010.4 - - - - - - - - -
20/03:00am 26.3 E 6 7 1010.2 - - - - - - - - -
20/02:30am 26.4 ESE 5 6 1010.4 - - - - - - - - -
20/02:20am 26.4 ESE 4 - 1010.4 - - - - - - - - -
20/02:00am 26.4 E 1 4 1010.7 - - - - - - - - -
20/01:30am 26.4 E 3 5 1010.9 - - - - - - - - -
20/01:20am 26.4 ESE 4 - 1010.9 - - - - - - - - -
20/01:00am 26.5 ESE 6 8 1011.1 - - - - - - - - -
20/12:30am 26.6 ESE 7 8 1011.3 - - - - - - - - -
20/12:20am 26.6 E 6 - 1011.2 - - - - - - - - -
20/12:00am 26.7 ESE 6 7 1011.5 - - - - - - - - -
 
Date/Time
EST
Temp

°C
Wind Pressure Rain
since 9am
mm
Weather Cloud Vis
km
Sea
Height
m
Swell
Dir
 
Speed
knots
Gust
knots
hPa Trend Height
m
Period
s
Dir
19/11:30pm 26.7 NE 5 5 1011.8 - - - - - - - - -
19/11:20pm 26.7 NE 4 - 1011.8 - - - - - - - - -
19/11:00pm 26.8 ENE 4 5 1012.0 - - - - - - - - -
19/10:30pm 26.8 ENE 5 6 1012.3 - - - - - - - - -
19/10:20pm 26.8 ENE 6 - 1012.2 - - - - - - - - -
19/10:00pm 26.8 NE 6 7 1012.2 - - - - - - - - -
19/09:30pm 26.8 NE 5 6 1012.3 - - - - - - - - -
19/09:20pm 26.9 ENE 6 - 1012.1 - - - - - - - - -
19/09:00pm 26.8 ENE 5 6 1012.2 - - - - - - - - -
19/08:30pm 27.0 NE 6 8 1012.1 - - - - - - - - -
19/08:20pm 27.1 NE 6 - 1012.0 - - - - - - - - -
19/08:00pm 27.1 NE 6 7 1011.8 - - - - - - - - -
19/07:30pm 27.0 NE 6 6 1011.4 - - - - - - - - -
19/07:20pm 27.0 NNE 5 - 1011.3 - - - - - - - - -
19/07:00pm 27.1 NNE 6 6 1011.2 - - - - - - - - -
19/06:30pm 27.0 NE 7 8 1010.6 - - - - - - - - -
19/06:20pm 26.9 NE 7 - 1010.5 - - - - - - - - -
19/06:00pm 26.9 NE 5 6 1010.4 - - - - - - - - -
19/05:30pm 27.1 CALM 0 0 1010.5 - - - - - - - - -
19/05:20pm 27.2 CALM 0 - 1010.3 - - - - - - - - -
19/05:00pm 27.3 CALM 0 0 1010.4 - - - - - - - - -
19/04:30pm 27.9 CALM 0 0 1010.2 - - - - - - - - -
19/04:20pm 28.0 CALM 0 - 1010.0 - - - - - - - - -
19/04:00pm 29.0 WSW 3 4 1010.1 - - - - - - - - -
19/03:30pm 29.8 W 3 4 1010.1 - - - - - - - - -
19/03:20pm 28.9 W 2 - 1010.1 - - - - - - - - -
19/03:00pm 27.7 W 5 6 1010.3 - - - - - - - - -
19/02:30pm 27.8 W 6 8 1010.6 - - - - - - - - -
19/02:20pm 27.7 W 6 - 1010.7 - - - - - - - - -
19/02:00pm 27.7 W 6 7 1010.8 - - - - - - - - -
19/01:30pm 27.6 W 7 8 1011.1 - - - - - - - - -
19/01:20pm 27.5 WNW 6 - 1011.2 - - - - - - - - -
19/01:00pm 27.3 WNW 7 8 1011.4 - - - - - - - - -
19/12:30pm 27.1 WNW 8 9 1011.7 - - - - - - - - -
19/12:20pm 27.2 WNW 7 - 1011.7 - - - - - - - - -
19/11:30am 27.2 NNW 7 9 1012.0 - - - - - - - - -
19/11:20am 27.1 NNW 7 - 1011.8 - - - - - - - - -
19/11:00am 27.1 N 7 8 1011.9 - - - - - - - - -
19/10:30am 27.0 N 6 8 1012.1 - - - - - - - - -
19/10:20am 26.9 N 8 - 1011.9 - - - - - - - - -
19/10:00am 26.9 N 7 9 1012.0 - - - - - - - - -
19/09:30am 26.8 N 8 9 1012.2 - - - - - - - - -
19/09:20am 26.8 N 7 - 1011.9 - - - - - - - - -
19/09:00am 26.8 N 8 9 1012.0 - - - - - - - - -
19/08:30am 26.7 N 8 9 1011.6 - - - - - - - - -
19/08:20am 26.7 N 9 - 1011.6 - - - - - - - - -
19/08:00am 26.6 N 10 12 1011.4 - - - - - - - - -
19/07:30am 26.6 NNE 10 11 1011.1 - - - - - - - - -
19/07:20am 26.6 N 11 - 1011.0 - - - - - - - - -
19/07:00am 26.5 NNE 11 13 1011.0 - - - - - - - - -
19/06:30am 26.5 NNE 11 13 1010.8 - - - - - - - - -
19/06:20am 26.5 NNE 10 - 1010.7 - - - - - - - - -
19/06:00am 26.5 NNE 10 12 1010.6 - - - - - - - - -
19/05:30am 26.4 N 10 11 1010.6 - - - - - - - - -
19/05:20am 26.4 N 9 - 1010.5 - - - - - - - - -
19/05:00am 26.4 N 9 11 1010.5 - - - - - - - - -
19/04:30am 26.5 N 8 9 1010.6 - - - - - - - - -
19/04:20am 26.5 N 7 - 1010.6 - - - - - - - - -
19/04:00am 26.5 N 7 8 1010.8 - - - - - - - - -
19/03:30am 26.6 N 10 12 1010.3 - - - - - - - - -
19/03:20am 26.6 N 9 - 1010.5 - - - - - - - - -
19/03:00am 26.6 WNW 7 8 1011.3 - - - - - - - - -
19/02:30am 26.7 WNW 11 13 1011.4 - - - - - - - - -
19/02:20am 26.7 NW 11 - 1011.5 - - - - - - - - -
19/02:00am 26.6 NW 10 11 1011.2 - - - - - - - - -
19/01:30am 26.6 NNW 10 12 1011.5 - - - - - - - - -
19/01:20am 26.7 NW 10 - 1011.7 - - - - - - - - -
19/01:00am 26.7 N 11 13 1011.4 - - - - - - - - -
19/12:30am 26.7 N 11 13 1011.4 - - - - - - - - -
19/12:20am 26.7 N 11 - 1011.4 - - - - - - - - -
19/12:00am 26.8 N 10 11 1011.9 - - - - - - - - -
 
Date/Time
EST
Temp

°C
Wind Pressure Rain
since 9am
mm
Weather Cloud Vis
km
Sea
Height
m
Swell
Dir
 
Speed
knots
Gust
knots
hPa Trend Height
m
Period
s
Dir
18/11:30pm 26.8 N 8 9 1012.2 - - - - - - - - -
18/11:20pm 26.8 N 8 - 1012.3 - - - - - - - - -
18/11:00pm 26.8 N 8 9 1012.6 - - - - - - - - -
18/10:30pm 27.0 N 9 10 1012.6 - - - - - - - - -
18/10:20pm 26.9 N 9 - 1012.4 - - - - - - - - -
18/10:00pm 26.9 N 10 11 1012.3 - - - - - - - - -
18/09:30pm 26.9 N 9 11 1012.1 - - - - - - - - -
18/09:20pm 27.0 N 10 - 1011.8 - - - - - - - - -
18/09:00pm 27.0 N 11 13 1011.7 - - - - - - - - -
18/08:30pm 27.0 N 11 13 1011.4 - - - - - - - - -
18/08:20pm 27.0 N 11 - 1011.3 - - - - - - - - -
18/08:00pm 27.1 N 10 12 1011.3 - - - - - - - - -
18/07:30pm 27.1 N 10 11 1011.2 - - - - - - - - -
18/07:20pm 27.1 N 10 - 1011.0 - - - - - - - - -
18/07:00pm 27.1 N 9 11 1010.9 - - - - - - - - -
18/06:30pm 27.1 N 9 11 1010.9 - - - - - - - - -
18/06:20pm 27.1 N 9 - 1010.6 - - - - - - - - -
18/06:00pm 27.1 N 10 12 1010.3 - - - - - - - - -
18/05:30pm 27.2 N 11 14 1009.6 - - - - - - - - -
18/05:20pm 27.2 N 12 - 1009.2 - - - - - - - - -
18/05:00pm 27.2 N 13 14 1008.9 - - - - - - - - -
18/04:30pm 27.1 NNE 13 15 1008.7 - - - - - - - - -
18/04:20pm 27.1 NNE 12 - 1008.8 - - - - - - - - -
18/04:00pm 27.2 NNE 13 15 1008.9 - - - - - - - - -
18/03:30pm 27.2 NNE 12 14 1009.1 - - - - - - - - -
18/03:20pm 27.2 N 13 - 1009.2 - - - - - - - - -
18/03:00pm 27.2 NNE 13 16 1009.7 - - - - - - - - -
18/02:30pm 27.2 NNE 12 13 1010.1 - - - - - - - - -
18/02:20pm 27.2 NNE 12 - 1010.1 - - - - - - - - -
18/02:00pm 27.3 N 12 14 1010.6 - - - - - - - - -
18/01:30pm 27.2 N 12 14 1011.0 - - - - - - - - -
18/01:20pm 27.2 N 12 - 1011.1 - - - - - - - - -
18/01:00pm 27.2 N 11 13 1011.2 - - - - - - - - -
18/12:30pm 27.1 N 11 12 1011.4 - - - - - - - - -
18/12:20pm 27.1 N 11 - 1011.4 - - - - - - - - -
18/12:00pm 27.1 N 10 12 1011.7 - - - - - - - - -
18/11:30am 27.1 N 11 12 1012.2 - - - - - - - - -
18/11:20am 27.1 N 11 - 1012.0 - - - - - - - - -
18/11:00am 27.1 N 10 12 1012.4 - - - - - - - - -
18/10:30am 27.1 N 11 13 1012.5 - - - - - - - - -
18/10:20am 27.1 N 11 - 1012.4 - - - - - - - - -
18/10:00am 27.0 N 12 15 1012.5 - - - - - - - - -
18/09:30am 27.1 N 12 14 1012.7 - - - - - - - - -
18/09:20am 27.1 N 13 - 1012.5 - - - - - - - - -
18/09:00am 27.0 N 14 16 1012.5 - - - - - - - - -
18/08:30am 27.0 N 14 16 1012.3 - - - - - - - - -
18/08:20am 27.0 N 15 - 1012.2 - - - - - - - - -
18/08:00am 27.0 NNE 14 16 1012.4 - - - - - - - - -
18/07:30am 27.0 N 12 14 1012.3 - - - - - - - - -
18/07:20am 27.0 N 13 - 1012.0 - - - - - - - - -
18/07:00am 27.0 N 14 16 1011.9 - - - - - - - - -
18/06:30am 27.0 N 13 15 1011.6 - - - - - - - - -
18/06:20am 27.0 N 13 - 1011.4 - - - - - - - - -
18/06:00am 26.9 N 13 15 1011.4 - - - - - - - - -
18/05:30am 26.9 N 13 15 1010.8 - - - - - - - - -
18/05:20am 26.9 N 13 - 1010.4 - - - - - - - - -
18/05:00am 26.9 N 13 15 1010.2 - - - - - - - - -
18/04:30am 26.9 N 15 17 1009.7 - - - - - - - - -
18/04:20am 26.9 N 15 - 1009.6 - - - - - - - - -
18/04:00am 26.9 N 14 16 1009.5 - - - - - - - - -
18/03:30am 27.0 N 13 15 1009.6 - - - - - - - - -
18/03:20am 26.9 N 14 - 1009.5 - - - - - - - - -
18/03:00am 27.0 N 12 13 1009.6 - - - - - - - - -
18/02:30am 27.0 N 12 13 1009.5 - - - - - - - - -
18/02:20am 27.1 N 12 - 1009.5 - - - - - - - - -
18/02:00am 27.0 N 13 15 1009.7 - - - - - - - - -
18/01:30am 27.0 N 13 15 1009.5 - - - - - - - - -
18/01:20am 27.1 N 13 - 1009.5 - - - - - - - - -
18/01:00am 27.1 N 13 15 1009.7 - - - - - - - - -
18/12:30am 27.2 NNW 13 14 1010.0 - - - - - - - - -
18/12:20am 27.2 NNW 12 - 1009.9 - - - - - - - - -
18/12:00am 27.2 N 13 15 1009.9 - - - - - - - - -
 
Date/Time
EST
Temp

°C
Wind Pressure Rain
since 9am
mm
Weather Cloud Vis
km
Sea
Height
m
Swell
Dir
 
Speed
knots
Gust
knots
hPa Trend Height
m
Period
s
Dir
17/11:30pm 27.3 N 12 13 1010.3 - - - - - - - - -
17/11:20pm 27.3 NNW 12 - 1010.1 - - - - - - - - -
17/11:00pm 27.3 N 13 16 1010.0 - - - - - - - - -
17/10:30pm 27.2 N 13 15 1009.8 - - - - - - - - -
17/10:20pm 27.2 N 14 - 1009.7 - - - - - - - - -
17/10:00pm 27.2 NNW 13 16 1009.9 - - - - - - - - -
17/09:30pm 27.2 N 14 16 1009.3 - - - - - - - - -
17/09:20pm 27.2 N 13 - 1009.3 - - - - - - - - -
17/09:00pm 27.2 N 14 15 1009.3 - - - - - - - - -
17/08:30pm 27.2 N 13 15 1009.3 - - - - - - - - -
17/08:20pm 27.2 N 14 - 1009.1 - - - - - - - - -
17/08:00pm 27.3 N 13 15 1009.3 - - - - - - - - -
17/07:30pm 27.2 N 13 15 1009.0 - - - - - - - - -
17/07:20pm 27.2 NNW 13 - 1009.0 - - - - - - - - -
17/07:00pm 27.3 N 14 15 1008.7 - - - - - - - - -
17/06:30pm 27.3 N 13 15 1008.6 - - - - - - - - -
17/06:20pm 27.3 NNW 13 - 1008.5 - - - - - - - - -
17/06:00pm 27.3 NNW 13 15 1008.4 - - - - - - - - -
17/05:30pm 27.4 N 13 15 1008.0 - - - - - - - - -
17/05:20pm 27.3 N 13 - 1007.8 - - - - - - - - -
17/05:00pm 27.3 N 13 14 1007.7 - - - - - - - - -
17/04:30pm 27.4 N 12 15 1007.6 - - - - - - - - -
17/04:20pm 27.4 N 13 - 1007.4 - - - - - - - - -
17/04:00pm 27.4 N 12 14 1007.4 - - - - - - - - -
17/03:30pm 27.4 NNW 11 13 1007.6 - - - - - - - - -
17/03:20pm 27.5 NNW 12 - 1007.6 - - - - - - - - -
17/03:00pm 27.4 N 12 13 1007.8 - - - - - - - - -
17/02:30pm 27.4 N 14 16 1007.8 - - - - - - - - -
17/02:20pm 27.4 N 14 - 1007.6 - - - - - - - - -
17/02:00pm 27.3 N 14 16 1007.8 - - - - - - - - -
17/01:30pm 27.3 NNW 13 15 1008.0 - - - - - - - - -
17/01:20pm 27.4 NNW 13 - 1008.2 - - - - - - - - -
17/01:00pm 27.2 N 12 15 1008.4 - - - - - - - - -
17/12:30pm 27.2 NNW 14 16 1008.8 - - - - - - - - -
17/12:20pm 27.3 NNW 13 - 1008.9 - - - - - - - - -
17/12:00pm 27.2 NNW 14 16 1008.9 - - - - - - - - -
17/11:30am 27.2 NNW 14 16 1009.3 - - - - - - - - -
17/11:20am 27.2 NNW 14 - 1009.3 - - - - - - - - -
17/11:00am 27.2 NNW 13 15 1009.6 - - - - - - - - -
17/10:30am 27.2 NNW 13 15 1009.8 - - - - - - - - -
17/10:20am 27.1 N 12 - 1009.8 - - - - - - - - -
17/10:00am 27.1 N 13 15 1010.0 - - - - - - - - -
17/09:30am 27.1 N 13 15 1009.9 - - - - - - - - -
17/09:20am 27.2 N 13 - 1010.0 - - - - - - - - -
17/09:00am 27.1 NNW 12 14 1010.2 - - - - - - - - -
17/08:30am 27.1 NNW 12 14 1010.1 - - - - - - - - -
17/08:20am 27.1 NNW 13 - 1010.0 - - - - - - - - -
17/08:00am 27.1 NNW 13 15 1010.1 - - - - - - - - -
17/07:30am 27.0 N 13 15 1009.9 - - - - - - - - -
17/07:20am 26.9 NNW 12 - 1009.8 - - - - - - - - -
17/07:00am 26.9 N 12 14 1009.8 - - - - - - - - -
17/06:30am 26.9 NNW 12 13 1009.3 - - - - - - - - -
17/06:20am 26.9 NNW 12 - 1009.4 - - - - - - - - -
17/06:00am 26.9 NNW 13 16 1009.1 - - - - - - - - -
17/05:30am 26.7 NNW 14 16 1008.7 - - - - - - - - -
17/05:20am 26.7 NNW 15 - 1008.5 - - - - - - - - -
17/05:00am 26.7 NNW 16 18 1008.0 - - - - - - - - -
17/04:30am 26.7 NNW 16 18 1007.7 - - - - - - - - -
17/04:20am 26.6 N 15 - 1007.7 - - - - - - - - -

Other Formats:

Comma delimited format used in spreadsheet applications
http://www.bom.gov.au/fwo/IDQ60701/IDQ60701.94371.axf

JavaScript Object Notation format (JSON) in row-major order
http://www.bom.gov.au/fwo/IDQ60701/IDQ60701.94371.json